Last 24 Hours

Pinyon

10 Minute Data | America/Los_Angeles
as of 8/31/26 11:44 PM PDT
Date & Time Temp (°F) Dew Pt (°F) RH (%) Wind Spd (mph) Wind Dir (°) Wind Gust (mph) Wind Gst Dir (°) Daily Max Temp (°F) Daily Min Temp (°F)
8/31/26 - 2340 69.0 34.8 28 12.5 N | 357 18.6 N | 350 85.7 68.1
8/31/26 - 2330 69.3 34.9 28 11.8 N | 352 17.2 N | 354 85.7 68.1
8/31/26 - 2320 69.2 32.2 25 11.1 N | 349 15.0 N | 352 85.7 68.1
8/31/26 - 2310 68.8 30.3 24 11.2 NNW | 344 16.4 N | 352 85.7 68.1
8/31/26 - 2300 68.6 30.1 24 10.6 NNW | 346 15.7 NNW | 341 85.7 68.1
8/31/26 - 2250 68.3 29.3 23 10.8 NNW | 348 14.5 NNW | 330 85.7 68.1
8/31/26 - 2240 68.3 30.0 24 11.3 NNW | 340 15.9 NNW | 348 85.7 68.2
8/31/26 - 2230 68.7 29.9 23 14.0 N | 353 18.5 NNW | 341 85.7 68.4
8/31/26 - 2220 69.8 28.5 21 14.4 N | 351 22.0 NNW | 346 85.7 68.6
8/31/26 - 2210 69.8 28.2 21 14.3 N | 352 20.2 N | 351 85.7 68.6
8/31/26 - 2200 69.6 29.9 23 14.4 N | 351 19.6 NNW | 342 85.7 68.6
8/31/26 - 2150 68.9 34.0 27 12.8 N | 356 19.6 NNW | 348 85.7 68.6
8/31/26 - 2140 68.9 36.0 30 11.8 N | 352 15.8 N | 354 85.7 68.6
8/31/26 - 2130 69.4 37.1 31 12.6 NNW | 347 17.7 NNW | 346 85.7 69.2
8/31/26 - 2120 69.5 38.4 32 12.6 NNW | 340 17.5 NNW | 347 85.7 69.3
8/31/26 - 2110 69.6 39.3 33 11.7 NNW | 339 16.1 NNW | 333 85.7 69.4
8/31/26 - 2100 69.7 39.6 33 11.3 NNW | 338 15.0 NNW | 347 85.7 69.6
8/31/26 - 2050 70.2 40.2 34 12.2 NNW | 343 16.7 NNW | 340 85.7 69.9
8/31/26 - 2040 70.6 40.6 34 12.7 NNW | 348 17.2 N | 352 85.7 69.9
8/31/26 - 2030 71.0 41.0 34 13.7 NNW | 348 21.1 NNW | 348 85.7 69.9
8/31/26 - 2020 71.1 41.2 34 12.3 NNW | 346 18.1 NNW | 334 85.7 69.9
8/31/26 - 2010 71.4 41.7 34 12.7 NNW | 344 18.0 N | 353 85.7 69.9
8/31/26 - 2000 71.8 41.0 33 12.0 NNW | 343 17.1 NNW | 338 85.7 69.9
8/31/26 - 1950 72.2 41.6 33 12.2 NNW | 340 17.5 NNW | 331 85.7 69.9
8/31/26 - 1940 72.7 41.6 33 12.8 NNW | 338 20.6 NNW | 341 85.7 69.9
8/31/26 - 1930 73.3 41.3 32 14.2 NNW | 334 20.5 N | 0 85.7 69.9
8/31/26 - 1920 73.8 40.9 30 14.0 NNW | 335 20.8 NNW | 339 85.7 69.9
8/31/26 - 1910 74.4 40.6 30 14.7 NNW | 333 20.5 NW | 325 85.7 69.9
8/31/26 - 1900 75.3 40.6 29 15.6 NNW | 337 21.4 NNW | 331 85.7 69.9
8/31/26 - 1850 76.0 41.4 29 15.9 NNW | 334 21.6 NNW | 341 85.7 69.9
8/31/26 - 1840 76.7 42.5 29 15.2 NNW | 340 21.5 NNW | 340 85.7 69.9
8/31/26 - 1830 76.9 43.3 30 17.0 NNW | 347 23.8 NNW | 342 85.7 69.9
8/31/26 - 1820 77.6 44.4 31 16.1 NNW | 344 22.4 NNW | 341 85.7 69.9
8/31/26 - 1810 78.3 45.2 31 15.8 NNW | 344 23.1 N | 351 85.7 69.9
8/31/26 - 1800 78.8 45.9 31 16.1 NNW | 342 23.1 NNW | 348 85.7 69.9
8/31/26 - 1750 79.0 46.0 31 16.1 NNW | 340 23.3 NNW | 334 85.7 69.9
8/31/26 - 1740 79.7 46.2 31 14.9 NNW | 337 22.6 NNW | 336 85.7 69.9
8/31/26 - 1730 80.3 46.5 30 14.8 NNW | 335 24.3 N | 349 85.7 69.9
8/31/26 - 1720 80.6 46.6 30 13.4 NNW | 341 20.9 N | 354 85.7 69.9
8/31/26 - 1710 80.5 46.8 31 14.3 NNW | 338 19.8 NNW | 328 85.7 69.9
8/31/26 - 1700 81.2 47.1 30 12.9 NNW | 334 23.6 N | 352 85.7 69.9
8/31/26 - 1650 81.7 47.1 30 12.4 NNW | 331 19.6 NNW | 346 85.7 69.9
8/31/26 - 1640 81.4 46.8 30 13.6 NNW | 333 20.3 NW | 320 85.7 69.9
8/31/26 - 1630 81.6 46.7 29 14.7 NNW | 340 21.9 N | 349 85.7 69.9
8/31/26 - 1620 82.2 46.1 28 13.6 NNW | 346 21.7 NNW | 335 85.7 69.9
8/31/26 - 1610 82.6 45.9 28 12.6 NNW | 328 21.7 NW | 321 85.7 69.9
8/31/26 - 1600 82.9 44.7 26 12.7 NNW | 344 19.0 NNW | 347 85.7 69.9
8/31/26 - 1550 82.8 44.3 26 11.2 NNW | 338 18.7 NNW | 334 85.7 69.9
8/31/26 - 1540 82.6 44.3 26 13.0 NNW | 338 19.6 NNW | 330 85.7 69.9
8/31/26 - 1530 82.9 44.7 26 13.5 NNW | 335 24.3 NNW | 339 85.7 69.9
8/31/26 - 1520 83.0 44.4 26 12.9 NNW | 348 21.0 NNW | 342 85.7 69.9
8/31/26 - 1510 82.9 44.6 26 13.2 N | 356 20.7 NNW | 344 85.7 69.9
8/31/26 - 1500 83.4 44.7 26 11.6 NNW | 340 22.8 N | 351 85.7 69.9
8/31/26 - 1450 83.2 44.5 26 13.1 N | 353 23.2 N | 353 85.7 69.9
8/31/26 - 1440 83.6 44.0 25 9.6 NNW | 329 18.6 N | 350 85.7 69.9
8/31/26 - 1430 83.3 44.3 25 12.2 NNW | 345 20.4 NNW | 331 85.7 69.9
8/31/26 - 1420 83.9 44.6 25 10.4 NNW | 343 22.5 NNW | 333 85.7 69.9
8/31/26 - 1410 83.9 44.8 25 9.2 NNW | 335 22.5 N | 2 85.7 69.9
8/31/26 - 1400 83.2 45.2 26 10.5 NNW | 337 18.0 N | 0 85.4 69.9
8/31/26 - 1350 83.1 45.6 27 7.1 N | 351 20.9 NE | 39 85.4 69.9
8/31/26 - 1340 82.8 45.7 27 7.9 N | 349 18.8 N | 352 84.1 69.9
8/31/26 - 1330 82.5 45.6 27 10.6 N | 3 20.7 N | 354 83.5 69.9
8/31/26 - 1320 82.7 46.3 28 9.5 N | 353 18.9 NNE | 25 83.5 69.9
8/31/26 - 1310 82.2 46.4 28 11.4 NNW | 337 18.3 NW | 326 83.1 69.9
8/31/26 - 1300 81.7 47.7 30 11.3 N | 359 23.1 NNW | 336 82.7 69.9
8/31/26 - 1250 81.4 48.0 31 13.7 NNW | 344 21.3 NNW | 342 82.7 69.9
8/31/26 - 1240 81.1 47.8 31 13.0 NNW | 342 21.9 NNW | 342 82.1 69.9
8/31/26 - 1230 81.3 48.6 32 15.4 NNW | 339 23.7 NNW | 340 82.1 69.9
8/31/26 - 1220 81.3 49.6 33 14.0 NNW | 330 23.8 NNW | 343 81.8 69.9
8/31/26 - 1210 80.5 50.2 35 15.3 NNW | 328 27.2 NW | 321 81.8 69.9
8/31/26 - 1200 80.2 50.2 35 15.8 NNW | 327 28.1 NNW | 343 81.6 69.9
8/31/26 - 1150 80.3 50.3 35 15.6 NNW | 330 23.3 NNW | 327 81.6 69.9
8/31/26 - 1140 80.4 49.9 34 14.2 NNW | 328 22.6 NNW | 336 81.6 69.9
8/31/26 - 1130 80.8 49.8 34 13.4 NNW | 332 21.1 NW | 322 81.4 69.9
8/31/26 - 1120 80.1 49.3 34 13.5 NNW | 329 20.2 NNW | 332 80.5 69.9
8/31/26 - 1110 79.8 47.5 32 14.0 NNW | 336 21.8 NNW | 340 80.4 69.9
8/31/26 - 1100 79.3 45.8 31 15.9 NNW | 331 25.1 NW | 316 80.2 69.9
8/31/26 - 1050 79.2 45.1 30 14.4 NNW | 327 23.0 NNW | 332 80.2 69.9
8/31/26 - 1040 79.5 43.9 28 13.1 NW | 325 21.7 NW | 313 80.2 69.9
8/31/26 - 1030 79.1 42.6 27 12.8 NNW | 334 22.1 NNW | 332 79.5 69.9
8/31/26 - 1020 78.9 41.6 26 11.2 NNW | 339 20.0 N | 353 79.5 69.9
8/31/26 - 1010 78.2 41.6 27 12.8 NNW | 334 21.0 NNW | 331 78.5 69.9
8/31/26 - 1000 77.8 41.0 27 12.1 NNW | 333 21.0 NNW | 341 78.4 69.9
8/31/26 - 0950 77.7 41.1 27 11.7 NNW | 327 17.9 N | 351 78.4 69.9
8/31/26 - 0940 76.8 42.4 29 13.0 NNW | 344 21.0 NNW | 335 77.1 69.9
8/31/26 - 0930 76.4 42.4 30 13.9 NNW | 330 22.0 NNW | 331 76.9 69.9
8/31/26 - 0920 75.9 42.5 30 15.0 NNW | 333 22.6 NNW | 340 76.2 69.9
8/31/26 - 0910 75.8 42.4 30 14.2 NNW | 332 20.9 NNW | 329 76.2 69.9
8/31/26 - 0900 75.0 40.6 29 16.1 NNW | 332 23.4 NNW | 336 75.2 69.9
8/31/26 - 0850 74.6 40.4 29 14.8 NNW | 337 22.8 NNW | 329 75.2 69.9
8/31/26 - 0840 74.3 39.6 28 15.8 NNW | 335 23.1 NNW | 338 74.5 69.9
8/31/26 - 0830 74.2 38.4 27 15.5 NNW | 335 24.0 NW | 326 74.5 69.9
8/31/26 - 0820 73.8 37.6 27 15.1 NNW | 332 22.6 NW | 324 73.9 69.9
8/31/26 - 0810 73.6 35.9 25 15.3 NNW | 335 22.1 NNW | 339 73.8 69.9
8/31/26 - 0800 73.2 35.0 25 14.5 NNW | 332 21.8 NW | 324 73.4 69.9
8/31/26 - 0750 72.8 33.8 24 16.2 NNW | 331 22.5 NNW | 345 73.0 69.9
8/31/26 - 0740 72.5 31.1 22 14.4 NNW | 330 21.5 NNW | 331 72.7 69.9
8/31/26 - 0730 72.0 29.5 21 14.1 NNW | 329 21.0 NW | 326 72.3 69.9
8/31/26 - 0720 71.5 27.7 19 14.2 NNW | 332 21.7 NNW | 341 72.0 69.9
8/31/26 - 0710 71.0 28.1 20 16.6 NNW | 332 24.8 NNW | 335 72.0 69.9
8/31/26 - 0700 70.6 28.3 21 17.0 NNW | 334 25.1 NNW | 333 72.0 69.9
8/31/26 - 0650 70.4 27.7 20 18.4 NNW | 334 25.1 NNW | 330 72.0 69.9
8/31/26 - 0640 70.5 28.2 21 18.8 NNW | 334 25.6 NNW | 330 72.0 69.9
8/31/26 - 0630 70.4 28.4 21 18.4 NNW | 334 26.7 NW | 322 72.0 69.9
8/31/26 - 0620 70.3 26.6 19 17.6 NNW | 337 24.2 NNW | 330 72.0 69.9
8/31/26 - 0610 70.5 26.5 19 17.9 NNW | 336 25.1 NNW | 345 72.0 69.9
8/31/26 - 0600 70.4 25.4 18 19.1 NNW | 331 26.4 NW | 324 72.0 69.9
8/31/26 - 0550 70.2 23.0 17 20.7 NNW | 332 27.9 NNW | 344 72.0 69.9
8/31/26 - 0540 70.3 21.6 16 21.1 NNW | 332 28.0 NNW | 333 72.0 70.1
8/31/26 - 0530 70.5 22.5 16 21.6 NNW | 332 28.6 NNW | 335 72.0 70.2
8/31/26 - 0520 70.5 24.0 17 21.6 NNW | 331 29.1 NNW | 331 72.0 70.2
8/31/26 - 0510 70.6 26.5 19 20.5 NNW | 332 28.4 NNW | 337 72.0 70.2
8/31/26 - 0500 70.7 30.6 23 19.4 NNW | 333 26.7 NNW | 342 72.0 70.5
8/31/26 - 0450 71.1 32.8 24 18.7 NNW | 334 24.3 NW | 325 72.0 70.5
8/31/26 - 0440 70.8 32.6 24 18.7 NNW | 336 25.9 NNW | 344 72.0 70.5
8/31/26 - 0430 70.9 32.8 24 19.1 NNW | 336 25.9 NNW | 338 72.0 70.5
8/31/26 - 0420 70.9 33.7 25 19.6 NNW | 337 25.2 NNW | 328 72.0 70.5
8/31/26 - 0410 71.0 34.2 26 19.3 NNW | 343 26.2 NNW | 345 72.0 70.5
8/31/26 - 0400 71.2 34.8 26 20.7 NNW | 343 29.3 NNW | 337 72.0 70.5
8/31/26 - 0350 71.0 35.0 27 20.6 NNW | 341 29.2 NNW | 345 72.0 70.5
8/31/26 - 0340 71.0 35.2 27 20.9 NNW | 341 28.4 NNW | 337 72.0 70.5
8/31/26 - 0330 71.0 35.6 27 20.3 NNW | 342 28.2 N | 349 72.0 70.5
8/31/26 - 0320 71.1 35.9 27 21.8 NNW | 340 29.4 NNW | 332 72.0 70.5
8/31/26 - 0310 71.1 36.4 28 22.3 NNW | 340 30.0 NNW | 336 72.0 70.5
8/31/26 - 0300 70.6 37.0 29 21.0 NNW | 337 28.6 NNW | 342 72.0 70.5
8/31/26 - 0250 70.9 37.2 29 19.7 NNW | 336 29.9 NNW | 344 72.0 70.5
8/31/26 - 0240 70.9 36.5 28 19.2 NNW | 333 28.7 NW | 326 72.0 70.7
8/31/26 - 0230 71.0 35.6 27 17.5 NNW | 332 25.1 NNW | 331 72.0 71.0
8/31/26 - 0220 71.0 36.6 28 16.4 NNW | 335 24.2 NNW | 336 72.0 71.0
8/31/26 - 0210 71.3 38.1 30 16.4 NNW | 337 23.5 NNW | 341 72.0 71.2
8/31/26 - 0200 71.6 38.4 30 15.3 NNW | 338 23.0 N | 351 72.0 71.3
8/31/26 - 0150 71.7 38.8 30 15.7 NNW | 341 21.5 NNW | 337 72.0 71.6
8/31/26 - 0140 71.8 38.9 30 17.0 NNW | 341 24.0 NNW | 335 72.0 71.8
8/31/26 - 0130 72.0 39.4 31 15.9 NNW | 338 21.0 NNW | 331 72.0 71.8
8/31/26 - 0120 71.9 39.6 31 15.9 NNW | 337 22.4 NNW | 336 72.0 71.8
8/31/26 - 0110 71.8 39.7 31 16.9 NNW | 340 25.1 NNW | 340 71.9 71.8
8/31/26 - 0100 71.9 40.0 31 17.2 NNW | 342 24.5 NNW | 332 88.0 71.4
8/31/26 - 0050 72.1 40.2 32 18.5 NNW | 344 25.5 NNW | 338 88.0 71.4
8/31/26 - 0040 72.6 40.6 31 20.3 NNW | 343 27.6 N | 354 88.0 71.4
8/31/26 - 0030 72.7 40.8 32 20.5 NNW | 339 28.6 NNW | 334 88.0 71.4
8/31/26 - 0020 72.7 41.0 32 20.0 NNW | 339 29.6 NNW | 338 88.0 71.4
8/31/26 - 0010 72.8 41.3 32 19.7 NNW | 342 27.6 NNW | 332 88.0 71.4
8/31/26 - 0000 72.5 41.8 33 19.4 NNW | 342 27.4 NNW | 348 88.0 71.4
8/30/26 - 2350 72.5 42.4 34 19.7 NNW | 338 26.9 NNW | 340 88.0 71.4
8/30/26 - 2340 72.5 42.5 34 20.8 NNW | 339 30.2 NNW | 342 88.0 71.4
Max 83.9 50.3 35 22.3 - 30.2 - 88.0 71.8
Avg 75.0 39.3 28 15.1 - 22.6 - - -
Min 68.3 21.6 16 7.1 - 14.5 - 71.9 68.1